Time;durP1;ratioP1;P1;durP2;ratioP2;P2;SDS_P1;SDS_P2;PMS_P1;PMS_P2;Temp;Humidity;BMP_temperature;BMP_pressure;BME280_temperature;BME280_humidity;BME280_pressure;Samples;Min_cycle;Max_cycle;Signal;HPM_P1;HPM_P2
2022/08/19 00:01:16;;;;;;;28.10;16.30;;;;;;;;;;6245709;28;20292;-85
2022/08/19 00:04:32;;;;;;;26.23;16.35;;;;;;;;;;6250573;28;20066;-85
2022/08/19 00:07:34;;;;;;;24.92;15.35;;;;;;;;;;6239225;28;20408;-82
2022/08/19 00:10:36;;;;;;;25.00;14.68;;;;;;;;;;6263212;28;20186;-82
2022/08/19 00:13:38;;;;;;;23.80;15.13;;;;;;;;;;6256519;28;20045;-82
2022/08/19 00:16:41;;;;;;;26.03;15.20;;;;;;;;;;6256308;28;20867;-84
2022/08/19 00:19:42;;;;;;;;;;;;;;;;;;6247553;28;20041;-83
2022/08/19 00:22:45;;;;;;;24.50;14.45;;;;;;;;;;6247167;28;19939;-83
2022/08/19 00:25:47;;;;;;;24.80;15.52;;;;;;;;;;6245445;28;20084;-83
2022/08/19 00:28:49;;;;;;;25.73;15.70;;;;;;;;;;6253083;28;20047;-84
2022/08/19 00:31:56;;;;;;;26.65;15.35;;;;;;;;;;6245188;28;20055;-84
2022/08/19 00:34:58;;;;;;;26.73;15.38;;;;;;;;;;6258434;28;20045;-84
2022/08/19 00:37:59;;;;;;;26.98;15.90;;;;;;;;;;6263662;28;20111;-83
2022/08/19 00:41:01;;;;;;;26.10;14.38;;;;;;;;;;6262029;28;20108;-82
2022/08/19 00:44:13;;;;;;;29.65;17.17;;;;;;;;;;6263630;28;20124;-82
2022/08/19 00:47:15;;;;;;;25.90;15.50;;;;;;;;;;6264040;28;20087;-82
2022/08/19 00:50:19;;;;;;;24.00;15.32;;;;;;;;;;6267124;28;20091;-84
2022/08/19 00:53:26;;;;;;;25.15;15.55;;;;;;;;;;6249796;28;20083;-82
2022/08/19 00:56:28;;;;;;;26.58;16.38;;;;;;;;;;6268769;28;20825;-82
2022/08/19 00:59:30;;;;;;;27.73;17.50;;;;;;;;;;6246981;28;20045;-83
2022/08/19 01:02:53;;;;;;;28.52;17.50;;;;;;;;;;6250296;28;20083;-82
2022/08/19 01:05:55;;;;;;;26.15;15.98;;;;;;;;;;6264718;28;20458;-85
2022/08/19 01:08:57;;;;;;;27.67;17.90;;;;;;;;;;6266021;28;20045;-84
2022/08/19 01:11:59;;;;;;;25.85;16.48;;;;;;;;;;6257095;28;20048;-82
2022/08/19 01:15:00;;;;;;;27.65;17.38;;;;;;;;;;6251051;28;20045;-84
2022/08/19 01:18:07;;;;;;;27.13;16.88;;;;;;;;;;6258389;28;20388;-84
2022/08/19 01:21:17;;;;;;;24.65;15.75;;;;;;;;;;6252025;28;20049;-83
2022/08/19 01:24:19;;;;;;;27.45;16.42;;;;;;;;;;6265587;28;20064;-83
2022/08/19 01:27:21;;;;;;;25.33;14.90;;;;;;;;;;6256911;28;20057;-83
2022/08/19 01:30:31;;;;;;;22.35;14.30;;;;;;;;;;6260736;28;20045;-82
2022/08/19 01:33:33;;;;;;;26.98;16.10;;;;;;;;;;6241251;28;20075;-83
2022/08/19 01:36:39;;;;;;;24.55;16.38;;;;;;;;;;6262940;28;20048;-83
2022/08/19 01:39:41;;;;;;;25.92;16.38;;;;;;;;;;6253966;28;20052;-83
2022/08/19 01:42:43;;;;;;;25.02;14.50;;;;;;;;;;6250292;28;20052;-83
2022/08/19 01:45:45;;;;;;;26.65;14.50;;;;;;;;;;6242906;28;20081;-83
2022/08/19 01:48:47;;;;;;;21.73;13.63;;;;;;;;;;6247955;28;20162;-83
2022/08/19 01:51:50;;;;;;;23.65;14.55;;;;;;;;;;6269132;28;20049;-82
2022/08/19 01:54:51;;;;;;;24.02;15.95;;;;;;;;;;6267262;28;20051;-82
2022/08/19 01:57:57;;;;;;;25.35;15.85;;;;;;;;;;6268222;28;20041;-83
2022/08/19 02:00:59;;;;;;;25.67;16.95;;;;;;;;;;6268668;28;20119;-83
2022/08/19 02:04:01;;;;;;;25.80;15.43;;;;;;;;;;6265105;28;20095;-83
2022/08/19 02:07:04;;;;;;;22.42;15.27;;;;;;;;;;6249023;28;20045;-83
2022/08/19 02:10:10;;;;;;;24.70;16.83;;;;;;;;;;6259143;28;20045;-82
2022/08/19 02:13:13;;;;;;;24.30;15.98;;;;;;;;;;6259892;28;20044;-82
2022/08/19 02:16:17;;;;;;;26.90;16.40;;;;;;;;;;6259047;28;20045;-82
2022/08/19 02:19:19;;;;;;;26.35;16.70;;;;;;;;;;6242836;28;20096;-83
2022/08/19 02:22:21;;;;;;;24.27;16.15;;;;;;;;;;6260688;28;20090;-81
2022/08/19 02:25:22;;;;;;;23.65;16.60;;;;;;;;;;6253233;28;20519;-82
2022/08/19 02:28:24;;;;;;;23.00;16.13;;;;;;;;;;6262647;28;20076;-82
2022/08/19 02:31:27;;;;;;;27.58;17.55;;;;;;;;;;6259914;28;20118;-81
2022/08/19 02:34:29;;;;;;;30.20;17.00;;;;;;;;;;6247180;28;20045;-83
2022/08/19 02:40:54;;;;;;;26.63;17.40;;;;;;;;;;6266335;28;20545;-82
2022/08/19 02:43:57;;;;;;;23.98;15.88;;;;;;;;;;6265174;28;20218;-82
2022/08/19 02:47:19;;;;;;;27.35;17.05;;;;;;;;;;6250705;28;20037;-82
2022/08/19 02:50:21;;;;;;;26.30;17.33;;;;;;;;;;6253558;28;20044;-82
2022/08/19 02:53:26;;;;;;;27.17;16.90;;;;;;;;;;6266637;28;20087;-83
2022/08/19 02:56:28;;;;;;;25.83;16.88;;;;;;;;;;6232600;28;20045;-83
2022/08/19 02:59:30;;;;;;;24.52;15.73;;;;;;;;;;6263983;28;20297;-83
2022/08/19 03:02:32;;;;;;;24.88;15.57;;;;;;;;;;6250468;28;20041;-83
2022/08/19 03:05:34;;;;;;;24.33;15.73;;;;;;;;;;6265051;28;20104;-82
2022/08/19 03:08:58;;;;;;;27.00;16.00;;;;;;;;;;6265680;28;20631;-82
2022/08/19 03:11:59;;;;;;;24.73;15.65;;;;;;;;;;6258625;28;20045;-82
2022/08/19 03:15:01;;;;;;;23.50;15.02;;;;;;;;;;6248257;28;20143;-83
2022/08/19 03:18:03;;;;;;;26.92;15.75;;;;;;;;;;6263122;28;20047;-84
2022/08/19 03:21:06;;;;;;;25.17;16.42;;;;;;;;;;6248870;28;20095;-82
2022/08/19 03:24:14;;;;;;;29.55;16.08;;;;;;;;;;6262792;28;20051;-83
2022/08/19 03:27:17;;;;;;;26.48;15.23;;;;;;;;;;6245865;28;20048;-83
2022/08/19 03:30:19;;;;;;;28.15;16.38;;;;;;;;;;6262275;28;20053;-82
2022/08/19 03:33:25;;;;;;;26.92;15.32;;;;;;;;;;6264912;28;20056;-84
2022/08/19 03:36:29;;;;;;;23.42;13.77;;;;;;;;;;6248791;28;20080;-83
2022/08/19 03:39:31;;;;;;;23.08;13.75;;;;;;;;;;6264945;28;20041;-83
2022/08/19 03:42:32;;;;;;;24.95;13.68;;;;;;;;;;6268144;28;20036;-81
2022/08/19 03:46:00;;;;;;;25.10;14.20;;;;;;;;;;6254514;28;20057;-81
2022/08/19 03:49:07;;;;;;;24.63;13.55;;;;;;;;;;6256549;28;20057;-81
2022/08/19 03:52:08;;;;;;;25.48;14.27;;;;;;;;;;6257355;28;20045;-81
2022/08/19 03:55:10;;;;;;;24.60;14.00;;;;;;;;;;6262035;28;20056;-82
2022/08/19 03:58:12;;;;;;;25.60;14.55;;;;;;;;;;6265844;28;20614;-81
2022/08/19 04:01:18;;;;;;;24.13;13.93;;;;;;;;;;6270726;28;20040;-81
2022/08/19 04:04:19;;;;;;;22.83;12.98;;;;;;;;;;6272485;28;20114;-82
2022/08/19 04:07:21;;;;;;;24.45;13.52;;;;;;;;;;6250447;28;20049;-82
2022/08/19 04:10:23;;;;;;;25.73;13.93;;;;;;;;;;6268814;28;20052;-81
2022/08/19 04:13:26;;;;;;;25.52;14.02;;;;;;;;;;6258998;28;20045;-82
2022/08/19 04:16:30;;;;;;;25.38;13.57;;;;;;;;;;6258413;28;20041;-82
2022/08/19 04:19:36;;;;;;;23.52;13.45;;;;;;;;;;6269353;28;20037;-82
2022/08/19 04:22:37;;;;;;;25.73;13.63;;;;;;;;;;6271637;28;20051;-81
2022/08/19 04:25:42;;;;;;;24.20;14.35;;;;;;;;;;6275750;28;20055;-81
2022/08/19 04:28:45;;;;;;;25.25;13.07;;;;;;;;;;6259911;28;20122;-82
2022/08/19 04:31:48;;;;;;;23.77;13.82;;;;;;;;;;6261232;28;20074;-81
2022/08/19 04:34:49;;;;;;;24.73;15.48;;;;;;;;;;6278447;28;20052;-81
2022/08/19 04:38:11;;;;;;;26.02;14.40;;;;;;;;;;6275125;28;20045;-81
2022/08/19 04:44:35;;;;;;;28.15;15.35;;;;;;;;;;6272978;28;20403;-81
2022/08/19 04:47:47;;;;;;;28.03;16.43;;;;;;;;;;6278855;28;20100;-81
2022/08/19 04:50:59;;;;;;;24.58;14.23;;;;;;;;;;6258258;28;20098;-81
2022/08/19 04:54:02;;;;;;;24.67;15.13;;;;;;;;;;6273197;28;20061;-80
2022/08/19 04:57:09;;;;;;;24.48;14.80;;;;;;;;;;6261379;28;20122;-81
2022/08/19 05:00:14;;;;;;;23.95;13.95;;;;;;;;;;6271086;28;20124;-81
2022/08/19 05:03:16;;;;;;;26.30;14.30;;;;;;;;;;6259543;28;20040;-81
2022/08/19 05:06:20;;;;;;;25.83;13.63;;;;;;;;;;6256233;28;20057;-81
2022/08/19 05:09:22;;;;;;;26.33;14.15;;;;;;;;;;6274047;28;20517;-81
2022/08/19 05:12:24;;;;;;;29.98;14.70;;;;;;;;;;6275955;28;20127;-81
2022/08/19 05:15:30;;;;;;;26.15;13.05;;;;;;;;;;6253936;28;20059;-81
2022/08/19 05:25:20;;;;;;;25.20;13.98;;;;;;;;;;6272333;28;20079;-81
2022/08/19 05:28:22;;;;;;;26.33;14.70;;;;;;;;;;6277098;28;20550;-81
2022/08/19 05:31:24;;;;;;;27.25;14.60;;;;;;;;;;6259749;28;20053;-81
2022/08/19 05:34:26;;;;;;;28.60;15.70;;;;;;;;;;6276411;28;20045;-81
2022/08/19 05:37:27;;;;;;;23.00;12.63;;;;;;;;;;6278935;28;20037;-81
2022/08/19 05:40:29;;;;;;;28.73;13.95;;;;;;;;;;6272740;28;20109;-81
2022/08/19 05:43:31;;;;;;;23.92;13.77;;;;;;;;;;6258562;28;20045;-81
2022/08/19 05:46:33;;;;;;;30.45;15.13;;;;;;;;;;6256871;28;20044;-81
2022/08/19 05:49:36;;;;;;;27.30;15.73;;;;;;;;;;6263575;28;20127;-81
2022/08/19 05:52:38;;;;;;;31.23;14.90;;;;;;;;;;6240814;28;20056;-81
2022/08/19 05:55:46;;;;;;;28.50;14.68;;;;;;;;;;6276112;28;20072;-81
2022/08/19 05:58:48;;;;;;;29.25;14.32;;;;;;;;;;6276172;28;20053;-81
2022/08/19 06:01:56;;;;;;;31.00;14.75;;;;;;;;;;6234567;28;20053;-82
2022/08/19 06:04:58;;;;;;;27.00;13.85;;;;;;;;;;6255690;28;20044;-81
2022/08/19 06:08:00;;;;;;;29.88;14.30;;;;;;;;;;6239336;28;20045;-81
2022/08/19 06:11:43;;;;;;;25.77;13.73;;;;;;;;;;6260177;28;20041;-81
2022/08/19 06:14:45;;;;;;;25.25;14.13;;;;;;;;;;6236751;28;20108;-80
2022/08/19 06:18:01;;;;;;;23.38;13.65;;;;;;;;;;6255669;28;20126;-81
2022/08/19 06:21:04;;;;;;;24.58;14.13;;;;;;;;;;6272686;28;20045;-81
2022/08/19 06:24:06;;;;;;;;;;;;;;;;;;6257633;28;20067;-82
2022/08/19 06:27:10;;;;;;;24.67;12.85;;;;;;;;;;6258833;28;19920;-82
2022/08/19 06:30:12;;;;;;;24.30;13.25;;;;;;;;;;6253117;28;20116;-82
2022/08/19 06:33:14;;;;;;;25.00;13.15;;;;;;;;;;6258872;28;20044;-82
2022/08/19 06:36:20;;;;;;;21.98;11.80;;;;;;;;;;6252815;28;20049;-85
2022/08/19 06:39:28;;;;;;;18.75;12.00;;;;;;;;;;6269775;28;20049;-80
2022/08/19 06:42:30;;;;;;;19.92;12.13;;;;;;;;;;6255709;28;20060;-80
2022/08/19 06:45:32;;;;;;;23.33;12.02;;;;;;;;;;6252576;28;20044;-80
2022/08/19 06:48:36;;;;;;;22.08;11.93;;;;;;;;;;6267434;28;20052;-83
2022/08/19 06:51:48;;;;;;;20.50;11.93;;;;;;;;;;6265420;28;20525;-83
2022/08/19 06:54:49;;;;;;;22.38;11.98;;;;;;;;;;6244687;28;20126;-84
2022/08/19 06:57:57;;;;;;;17.77;11.40;;;;;;;;;;6246763;28;20060;-83
2022/08/19 07:01:01;;;;;;;17.10;11.55;;;;;;;;;;6264221;28;20048;-82
2022/08/19 07:04:09;;;;;;;18.58;11.02;;;;;;;;;;6240017;28;20132;-82
2022/08/19 07:07:14;;;;;;;18.70;11.27;;;;;;;;;;6261929;28;20040;-82
2022/08/19 07:10:22;;;;;;;19.42;11.27;;;;;;;;;;6265834;28;20179;-82
2022/08/19 07:13:26;;;;;;;16.98;10.88;;;;;;;;;;6234433;28;20096;-82
2022/08/19 07:16:28;;;;;;;17.53;10.87;;;;;;;;;;6271111;28;20050;-83
2022/08/19 07:19:31;;;;;;;18.08;11.43;;;;;;;;;;6290594;28;20052;-83
2022/08/19 07:22:39;;;;;;;14.05;11.07;;;;;;;;;;6269836;28;20051;-83
2022/08/19 07:25:42;;;;;;;20.25;11.98;;;;;;;;;;6293483;28;20049;-84
2022/08/19 07:28:48;;;;;;;15.65;10.57;;;;;;;;;;6278606;28;20048;-82
2022/08/19 07:31:56;;;;;;;14.98;10.82;;;;;;;;;;6292397;28;20050;-83
2022/08/19 07:35:00;;;;;;;14.65;9.85;;;;;;;;;;6296729;28;20060;-83
2022/08/19 07:38:03;;;;;;;15.77;10.38;;;;;;;;;;6282825;28;20049;-82
2022/08/19 07:41:06;;;;;;;14.27;10.35;;;;;;;;;;6273677;28;20044;-82
2022/08/19 07:44:09;;;;;;;14.02;9.52;;;;;;;;;;6297179;28;20048;-82
2022/08/19 07:47:12;;;;;;;15.52;9.18;;;;;;;;;;6279579;28;20059;-82
2022/08/19 07:50:34;;;;;;;17.95;9.45;;;;;;;;;;6297188;28;20168;-82
2022/08/19 07:53:36;;;;;;;15.68;9.10;;;;;;;;;;6282539;28;20041;-82
2022/08/19 07:56:41;;;;;;;12.77;9.70;;;;;;;;;;6259265;28;20049;-81
2022/08/19 07:59:43;;;;;;;14.88;10.30;;;;;;;;;;6279363;28;20715;-82
2022/08/19 08:02:44;;;;;;;12.20;9.88;;;;;;;;;;6268081;28;20117;-81
2022/08/19 08:09:11;;;;;;;15.43;10.30;;;;;;;;;;6275971;28;20044;-81
2022/08/19 08:12:31;;;;;;;13.60;9.13;;;;;;;;;;6295269;28;20059;-83
2022/08/19 08:15:38;;;;;;;14.65;9.75;;;;;;;;;;6258279;28;20060;-83
2022/08/19 08:18:44;;;;;;;13.70;9.05;;;;;;;;;;6295547;28;20067;-83
2022/08/19 08:21:53;;;;;;;13.00;8.77;;;;;;;;;;6279956;28;20036;-84
2022/08/19 08:24:55;;;;;;;10.57;8.38;;;;;;;;;;6293284;28;20200;-83
2022/08/19 08:27:59;;;;;;;14.90;8.98;;;;;;;;;;6296849;28;20737;-83
2022/08/19 08:31:01;;;;;;;11.85;8.27;;;;;;;;;;6281923;28;20495;-81
2022/08/19 08:34:12;;;;;;;12.18;8.15;;;;;;;;;;6295582;28;20372;-82
2022/08/19 08:37:14;;;;;;;11.45;9.13;;;;;;;;;;6260502;28;20045;-82
2022/08/19 08:40:35;;;;;;;11.02;8.27;;;;;;;;;;6268862;28;20064;-82
2022/08/19 08:43:43;;;;;;;13.45;8.48;;;;;;;;;;6277530;28;20051;-82
2022/08/19 08:46:50;;;;;;;10.82;8.30;;;;;;;;;;6287442;28;20061;-82
2022/08/19 08:50:04;;;;;;;10.95;8.32;;;;;;;;;;6292760;28;20049;-82
2022/08/19 08:53:08;;;;;;;13.05;9.32;;;;;;;;;;6294022;28;20728;-82
2022/08/19 08:56:12;;;;;;;11.90;9.00;;;;;;;;;;6257055;28;20044;-82
2022/08/19 08:59:33;;;;;;;10.70;8.63;;;;;;;;;;6291018;28;20115;-83
2022/08/19 09:02:34;;;;;;;14.50;9.30;;;;;;;;;;6265289;28;20502;-83
2022/08/19 09:05:48;;;;;;;16.63;9.43;;;;;;;;;;6286918;28;20121;-83
2022/08/19 09:08:59;;;;;;;12.07;10.18;;;;;;;;;;6272554;28;20089;-85
2022/08/19 09:12:27;;;;;;;14.32;11.93;;;;;;;;;;6248838;28;20079;-86
2022/08/19 09:15:34;;;;;;;12.88;10.35;;;;;;;;;;6198698;28;20045;-85
2022/08/19 09:18:54;;;;;;;15.88;11.40;;;;;;;;;;6267630;28;20060;-85
2022/08/19 09:22:00;;;;;;;14.43;12.02;;;;;;;;;;6277288;28;20040;-85
2022/08/19 09:25:15;;;;;;;13.63;11.93;;;;;;;;;;6282256;28;20499;-85
2022/08/19 09:28:17;;;;;;;13.85;10.93;;;;;;;;;;6249805;28;20094;-84
2022/08/19 09:31:33;;;;;;;12.80;11.50;;;;;;;;;;6195494;28;20062;-84
2022/08/19 09:34:37;;;;;;;12.35;11.05;;;;;;;;;;6241459;28;20120;-84
2022/08/19 09:37:44;;;;;;;15.35;11.70;;;;;;;;;;6282087;28;20725;-83
2022/08/19 09:41:05;;;;;;;10.80;9.70;;;;;;;;;;6266852;28;20124;-86
2022/08/19 09:44:07;;;;;;;12.35;10.50;;;;;;;;;;6211117;28;20053;-84
2022/08/19 09:47:29;;;;;;;11.82;9.98;;;;;;;;;;6181073;28;20084;-84
2022/08/19 09:51:32;;;;;;;12.15;9.93;;;;;;;;;;6257476;28;20044;-84
2022/08/19 09:54:39;;;;;;;11.27;10.07;;;;;;;;;;6249647;28;20040;-84
2022/08/19 09:57:47;;;;;;;11.20;10.00;;;;;;;;;;6253480;28;20037;-84
2022/08/19 10:01:32;;;;;;;10.52;9.43;;;;;;;;;;6238871;28;22689;-85
2022/08/19 10:08:00;;;;;;;12.55;11.25;;;;;;;;;;6291192;28;20048;-83
2022/08/19 10:11:05;;;;;;;12.43;10.65;;;;;;;;;;6274846;28;20041;-84
2022/08/19 10:14:27;;;;;;;13.10;11.40;;;;;;;;;;6260850;28;20445;-84
2022/08/19 10:17:33;;;;;;;13.13;11.73;;;;;;;;;;6227856;28;20051;-84
2022/08/19 10:20:50;;;;;;;12.68;11.48;;;;;;;;;;6286747;28;20059;-82
2022/08/19 10:23:57;;;;;;;12.20;11.00;;;;;;;;;;6272407;28;20049;-83
2022/08/19 10:27:00;;;;;;;12.50;11.23;;;;;;;;;;6276082;28;20620;-84
2022/08/19 10:30:02;;;;;;;11.57;9.93;;;;;;;;;;6289820;28;20064;-83
2022/08/19 10:33:10;;;;;;;11.50;10.35;;;;;;;;;;6270999;28;20040;-84
2022/08/19 10:36:15;;;;;;;12.52;11.13;;;;;;;;;;6282892;28;20055;-84
2022/08/19 10:39:19;;;;;;;11.60;10.25;;;;;;;;;;6275723;28;20040;-82
2022/08/19 10:42:24;;;;;;;11.57;10.32;;;;;;;;;;6283952;28;20425;-83
2022/08/19 10:45:26;;;;;;;14.23;10.27;;;;;;;;;;6276448;28;20123;-82
2022/08/19 10:48:28;;;;;;;11.65;10.52;;;;;;;;;;6287759;28;20047;-82
2022/08/19 10:58:15;;;;;;;10.40;9.27;;;;;;;;;;6287201;28;20523;-82
2022/08/19 11:01:18;;;;;;;11.98;9.93;;;;;;;;;;6267660;28;20052;-82
2022/08/19 11:04:20;;;;;;;10.50;9.50;;;;;;;;;;6287785;28;20178;-81
2022/08/19 11:07:29;;;;;;;10.20;9.27;;;;;;;;;;6271628;28;20066;-82
2022/08/19 11:10:31;;;;;;;9.40;8.43;;;;;;;;;;6283197;28;20051;-82
2022/08/19 11:13:37;;;;;;;9.95;9.02;;;;;;;;;;6289052;28;20637;-82
2022/08/19 11:16:39;;;;;;;10.07;8.88;;;;;;;;;;6280719;28;20044;-82
2022/08/19 11:19:42;;;;;;;9.10;8.20;;;;;;;;;;6270618;28;20048;-82
2022/08/19 11:22:43;;;;;;;9.48;8.57;;;;;;;;;;6275350;28;20051;-82
2022/08/19 11:25:46;;;;;;;9.60;8.70;;;;;;;;;;6282060;28;20037;-81
2022/08/19 11:28:48;;;;;;;9.15;8.25;;;;;;;;;;6292286;28;20461;-81
2022/08/19 11:31:50;;;;;;;9.90;8.93;;;;;;;;;;6277902;28;20052;-81
2022/08/19 11:34:52;;;;;;;9.88;8.95;;;;;;;;;;6289802;28;20067;-81
2022/08/19 11:37:53;;;;;;;9.25;8.45;;;;;;;;;;6271762;28;20064;-84
2022/08/19 11:41:00;;;;;;;8.55;7.75;;;;;;;;;;6272436;28;20127;-85
2022/08/19 11:44:04;;;;;;;8.00;7.20;;;;;;;;;;6283776;28;20098;-87
2022/08/19 11:47:06;;;;;;;7.78;6.88;;;;;;;;;;6281683;28;20049;-86
2022/08/19 11:50:09;;;;;;;7.93;6.63;;;;;;;;;;6291867;28;20043;-83
2022/08/19 11:53:11;;;;;;;6.63;5.95;;;;;;;;;;6291774;28;20072;-85
2022/08/19 11:56:13;;;;;;;7.57;6.38;;;;;;;;;;6270498;28;20044;-83
2022/08/19 11:59:15;;;;;;;7.30;6.68;;;;;;;;;;6272514;28;20048;-86
2022/08/19 12:02:18;;;;;;;7.55;6.85;;;;;;;;;;6289777;28;20128;-84
2022/08/19 12:05:20;;;;;;;7.50;6.72;;;;;;;;;;6288079;28;20098;-82
2022/08/19 12:08:22;;;;;;;7.13;6.53;;;;;;;;;;6289829;28;20040;-85
2022/08/19 12:11:24;;;;;;;7.60;6.78;;;;;;;;;;6290861;28;20079;-84
2022/08/19 12:14:27;;;;;;;8.20;6.22;;;;;;;;;;6291638;28;20190;-83
2022/08/19 12:17:30;;;;;;;6.40;5.65;;;;;;;;;;6268430;28;20062;-84
2022/08/19 12:20:35;;;;;;;6.35;5.43;;;;;;;;;;6293880;28;20052;-84
2022/08/19 12:23:37;;;;;;;6.22;5.63;;;;;;;;;;6290452;28;20139;-84
2022/08/19 12:26:39;;;;;;;;;;;;;;;;;;6286510;28;20049;-84
2022/08/19 12:29:53;;;;;;;7.90;4.80;;;;;;;;;;6288135;28;19996;-83
2022/08/19 12:32:55;;;;;;;4.90;4.50;;;;;;;;;;6270476;28;20051;-85
2022/08/19 12:36:04;;;;;;;5.28;4.88;;;;;;;;;;6273525;28;20048;-84
2022/08/19 12:39:08;;;;;;;6.80;4.32;;;;;;;;;;6272621;28;20052;-85
2022/08/19 12:42:12;;;;;;;4.85;4.38;;;;;;;;;;6273770;28;20430;-86
2022/08/19 12:45:14;;;;;;;4.60;4.10;;;;;;;;;;6274079;28;20123;-84
2022/08/19 12:48:16;;;;;;;5.70;4.80;;;;;;;;;;6296214;28;20056;-83
2022/08/19 12:51:35;;;;;;;5.80;4.75;;;;;;;;;;6276056;28;20427;-84
2022/08/19 12:54:37;;;;;;;4.88;4.47;;;;;;;;;;6294873;28;20049;-84
2022/08/19 12:57:39;;;;;;;5.60;5.10;;;;;;;;;;6282127;28;20045;-85
2022/08/19 13:00:41;;;;;;;5.03;4.53;;;;;;;;;;6279074;28;20049;-85
2022/08/19 13:03:45;;;;;;;5.13;4.50;;;;;;;;;;6286974;28;20051;-84
2022/08/19 13:06:47;;;;;;;5.32;4.40;;;;;;;;;;6276320;28;20071;-84
2022/08/19 13:09:51;;;;;;;4.50;4.20;;;;;;;;;;6291898;28;20045;-86
2022/08/19 13:12:53;;;;;;;4.70;4.30;;;;;;;;;;6285826;28;20052;-85
2022/08/19 13:16:01;;;;;;;6.70;4.55;;;;;;;;;;6293100;28;20130;-85
2022/08/19 13:19:04;;;;;;;5.05;4.65;;;;;;;;;;6261920;28;20055;-86
2022/08/19 13:22:06;;;;;;;5.18;4.68;;;;;;;;;;6296001;28;20048;-84
2022/08/19 13:25:18;;;;;;;5.70;5.07;;;;;;;;;;6294301;28;20127;-83
2022/08/19 13:28:20;;;;;;;5.57;4.75;;;;;;;;;;6279841;28;20037;-80
2022/08/19 13:34:55;;;;;;;5.20;4.70;;;;;;;;;;6290259;28;20119;-84
2022/08/19 13:37:57;;;;;;;5.72;5.22;;;;;;;;;;6272981;28;20041;-84
2022/08/19 13:41:05;;;;;;;5.45;4.82;;;;;;;;;;6285993;28;20047;-85
2022/08/19 13:44:15;;;;;;;7.43;5.10;;;;;;;;;;6284967;28;20193;-82
2022/08/19 13:47:17;;;;;;;5.38;4.70;;;;;;;;;;6260283;28;20040;-83
2022/08/19 13:50:20;;;;;;;;;;;;;;;;;;6287410;28;20102;-82
2022/08/19 13:53:24;;;;;;;5.60;5.05;;;;;;;;;;6286666;28;20390;-85
2022/08/19 13:56:26;;;;;;;5.32;4.90;;;;;;;;;;6288284;28;20086;-83
2022/08/19 13:59:27;;;;;;;5.32;4.68;;;;;;;;;;6272069;28;20044;-86
2022/08/19 14:02:29;;;;;;;4.93;4.50;;;;;;;;;;6270250;28;20503;-83
2022/08/19 14:05:31;;;;;;;4.95;4.45;;;;;;;;;;6271861;28;20064;-84
2022/08/19 14:08:33;;;;;;;4.57;4.18;;;;;;;;;;6296030;28;20185;-83
2022/08/19 14:11:35;;;;;;;5.25;4.70;;;;;;;;;;6290974;28;20120;-88
2022/08/19 14:14:39;;;;;;;5.00;4.60;;;;;;;;;;6283470;28;20060;-88
2022/08/19 14:17:43;;;;;;;5.30;4.78;;;;;;;;;;6281655;28;20110;-84
2022/08/19 14:20:45;;;;;;;4.75;4.43;;;;;;;;;;6275320;28;20044;-85
2022/08/19 14:23:47;;;;;;;4.90;4.35;;;;;;;;;;6270645;28;20049;-88
2022/08/19 14:26:48;;;;;;;4.80;4.40;;;;;;;;;;6275136;28;20063;-83
2022/08/19 14:29:51;;;;;;;4.60;4.28;;;;;;;;;;6287394;28;20054;-81
2022/08/19 14:32:58;;;;;;;5.68;5.28;;;;;;;;;;6282339;28;20048;-82
2022/08/19 14:36:00;;;;;;;5.70;5.20;;;;;;;;;;6280569;28;20040;-83
2022/08/19 14:39:03;;;;;;;5.13;4.72;;;;;;;;;;6302886;28;20463;-80
2022/08/19 14:42:08;;;;;;;5.57;5.07;;;;;;;;;;6286680;28;20456;-82
2022/08/19 14:45:12;;;;;;;5.57;5.07;;;;;;;;;;6267787;28;20044;-81
2022/08/19 14:48:13;;;;;;;5.88;5.22;;;;;;;;;;6294283;28;20106;-81
2022/08/19 14:51:24;;;;;;;5.40;5.00;;;;;;;;;;6289171;28;20129;-81
2022/08/19 14:54:26;;;;;;;5.60;5.10;;;;;;;;;;6268705;28;20098;-80
2022/08/19 14:57:30;;;;;;;5.50;5.00;;;;;;;;;;6285366;28;20117;-81
2022/08/19 15:00:32;;;;;;;5.75;5.18;;;;;;;;;;6286592;28;20140;-82
2022/08/19 15:03:40;;;;;;;6.93;5.38;;;;;;;;;;6282529;28;20051;-80
2022/08/19 15:06:42;;;;;;;6.53;5.53;;;;;;;;;;6287196;28;20044;-83
2022/08/19 15:09:44;;;;;;;6.53;5.90;;;;;;;;;;6285959;28;20044;-83
2022/08/19 15:12:48;;;;;;;6.13;5.63;;;;;;;;;;6296218;28;20056;-83
2022/08/19 15:15:54;;;;;;;6.88;5.47;;;;;;;;;;6275857;28;20044;-81
2022/08/19 15:18:58;;;;;;;6.32;5.75;;;;;;;;;;6264800;28;20045;-83
2022/08/19 15:22:00;;;;;;;6.50;5.90;;;;;;;;;;6270655;28;20041;-80
2022/08/19 15:25:03;;;;;;;5.40;4.90;;;;;;;;;;6285462;28;20068;-80
2022/08/19 15:28:05;;;;;;;7.05;5.70;;;;;;;;;;6279801;28;20055;-81
2022/08/19 15:31:07;;;;;;;8.40;6.07;;;;;;;;;;6276019;28;20048;-80
2022/08/19 15:34:24;;;;;;;6.72;6.03;;;;;;;;;;6258040;28;20110;-83
2022/08/19 15:37:26;;;;;;;6.35;5.63;;;;;;;;;;6290959;28;20052;-81
2022/08/19 15:40:28;;;;;;;6.95;6.35;;;;;;;;;;6277473;28;20041;-80
2022/08/19 15:43:30;;;;;;;7.47;5.60;;;;;;;;;;6265661;28;20048;-83
2022/08/19 15:46:33;;;;;;;6.15;5.43;;;;;;;;;;6271864;28;20282;-80
2022/08/19 15:49:35;;;;;;;6.38;5.43;;;;;;;;;;6271370;28;20733;-83
2022/08/19 15:52:48;;;;;;;6.03;5.53;;;;;;;;;;6279798;28;20043;-84
2022/08/19 15:55:50;;;;;;;5.97;5.47;;;;;;;;;;6288614;28;20110;-86
2022/08/19 16:08:55;;;;;;;6.53;5.93;;;;;;;;;;6270050;28;20174;-80
2022/08/19 16:12:03;;;;;;;5.72;5.15;;;;;;;;;;6283206;28;20190;-83
2022/08/19 16:15:05;;;;;;;6.35;5.75;;;;;;;;;;6280475;28;20045;-81
2022/08/19 16:18:06;;;;;;;;;;;;;;;;;;6265481;28;20045;-81
2022/08/19 16:21:08;;;;;;;5.50;5.00;;;;;;;;;;6271092;28;19928;-82
2022/08/19 16:24:12;;;;;;;6.00;5.47;;;;;;;;;;6229903;28;20108;-81
2022/08/19 16:27:15;;;;;;;6.28;5.22;;;;;;;;;;6198083;28;20106;-81
2022/08/19 16:30:20;;;;;;;5.85;5.15;;;;;;;;;;6196159;28;20245;-80
2022/08/19 16:33:22;;;;;;;5.30;4.80;;;;;;;;;;6217791;28;20129;-80
2022/08/19 16:36:24;;;;;;;5.38;4.88;;;;;;;;;;6195394;28;20042;-80
2022/08/19 16:39:25;;;;;;;6.07;5.50;;;;;;;;;;6180576;28;20509;-81
2022/08/19 16:42:27;;;;;;;5.97;5.20;;;;;;;;;;6201978;28;20132;-80
2022/08/19 16:45:29;;;;;;;5.93;5.28;;;;;;;;;;6218742;28;20050;-81
2022/08/19 16:48:31;;;;;;;5.53;5.03;;;;;;;;;;6207559;28;20109;-82
2022/08/19 16:51:33;;;;;;;5.70;5.10;;;;;;;;;;6213991;28;20056;-81
2022/08/19 16:54:36;;;;;;;5.63;5.07;;;;;;;;;;6201475;28;20068;-81
2022/08/19 16:57:38;;;;;;;6.05;5.30;;;;;;;;;;6211894;28;20042;-83
2022/08/19 17:00:40;;;;;;;5.80;5.03;;;;;;;;;;6212630;28;20052;-82
2022/08/19 17:03:42;;;;;;;5.97;5.32;;;;;;;;;;6219002;28;20046;-82
2022/08/19 17:06:44;;;;;;;6.15;5.60;;;;;;;;;;6199721;28;20038;-81
2022/08/19 17:09:49;;;;;;;6.07;5.57;;;;;;;;;;6191620;28;20505;-82
2022/08/19 17:12:53;;;;;;;5.38;4.97;;;;;;;;;;6211944;28;20048;-83
2022/08/19 17:15:56;;;;;;;6.20;5.70;;;;;;;;;;6197055;28;20160;-82
2022/08/19 17:19:01;;;;;;;6.18;5.50;;;;;;;;;;6211416;28;20030;-81
2022/08/19 17:22:03;;;;;;;6.93;5.72;;;;;;;;;;6212025;28;20120;-82
2022/08/19 17:25:05;;;;;;;5.72;5.15;;;;;;;;;;6201271;28;20374;-83
2022/08/19 17:28:08;;;;;;;;;;;;;;;;;;6184276;28;20065;-82
2022/08/19 17:31:09;;;;;;;8.00;6.55;;;;;;;;;;6213670;28;19949;-81
2022/08/19 17:34:11;;;;;;;6.90;6.30;;;;;;;;;;6200903;28;20089;-81
2022/08/19 17:37:14;;;;;;;6.17;5.57;;;;;;;;;;6212531;28;20148;-82
2022/08/19 17:40:17;;;;;;;6.35;5.75;;;;;;;;;;6214782;28;20662;-82
2022/08/19 17:43:24;;;;;;;6.80;5.18;;;;;;;;;;6217618;28;20046;-82
2022/08/19 17:46:35;;;;;;;7.22;5.20;;;;;;;;;;6206429;28;20046;-84
2022/08/19 17:49:36;;;;;;;5.40;4.90;;;;;;;;;;6203167;28;20074;-84
2022/08/19 17:52:38;;;;;;;5.65;5.13;;;;;;;;;;6218979;28;20042;-84
2022/08/19 17:55:40;;;;;;;7.45;5.97;;;;;;;;;;6217254;28;20056;-83
2022/08/19 17:58:42;;;;;;;8.13;5.40;;;;;;;;;;6219113;28;20143;-84
2022/08/19 18:01:54;;;;;;;5.63;5.13;;;;;;;;;;6189784;28;20181;-84
2022/08/19 18:04:56;;;;;;;6.28;5.20;;;;;;;;;;6191010;28;20128;-84
2022/08/19 18:07:59;;;;;;;6.65;5.47;;;;;;;;;;6217640;28;20518;-84
2022/08/19 18:11:02;;;;;;;7.10;5.45;;;;;;;;;;6187366;28;20077;-81
2022/08/19 18:14:07;;;;;;;7.50;5.53;;;;;;;;;;6224587;28;20050;-81
2022/08/19 18:17:13;;;;;;;5.77;5.20;;;;;;;;;;6210575;28;20052;-80
2022/08/19 18:20:16;;;;;;;8.32;5.65;;;;;;;;;;6232400;28;20226;-80
2022/08/19 18:23:18;;;;;;;7.93;5.18;;;;;;;;;;6227050;28;20045;-80
2022/08/19 18:26:40;;;;;;;;;;;;;;;;;;6223142;28;20081;-81
2022/08/19 18:29:43;;;;;;;6.33;5.07;;;;;;;;;;6209687;28;19921;-81
2022/08/19 18:32:48;;;;;;;7.72;5.72;;;;;;;;;;6224091;28;20457;-80
2022/08/19 18:35:51;;;;;;;7.50;5.40;;;;;;;;;;6224092;28;20128;-80
2022/08/19 18:49:05;;;;;;;6.63;5.50;;;;;;;;;;6192660;28;20049;-79
2022/08/19 18:52:07;;;;;;;8.80;5.65;;;;;;;;;;6226933;28;20062;-79
2022/08/19 18:55:09;;;;;;;6.43;5.37;;;;;;;;;;6227779;28;20057;-79
2022/08/19 18:58:10;;;;;;;8.30;5.33;;;;;;;;;;6197656;28;20045;-79
2022/08/19 19:01:19;;;;;;;7.60;5.47;;;;;;;;;;6218752;28;20175;-80
2022/08/19 19:04:30;;;;;;;5.95;5.25;;;;;;;;;;6225146;28;20064;-80